Terminal Aerodrome Forecast
Issued by NWS Billings, MT

Home | Current Version | Previous Version | Text Only | Print | Product List | Glossary On
Versions: 1 2 3 4 5 6 7 8 9 10 11 12 13 14 15 16 17 18 19 20 21 22 23 24 25 26 27 28 29 30 31 32 33 34 35 36 37 38
000
FTUS45 KBYZ 240522
TAFSHR
TAF
KSHR 240522Z 2406/2506 13009KT 3SM -SN BR SCT007 BKN015 OVC025
     FM240800 VRB06KT P6SM VCSH SCT007 BKN015 OVC025
     FM241600 VRB05KT P6SM SCT015 BKN025 OVC040
     FM242100 VRB05KT P6SM SCT025 BKN050 BKN090=

USA.gov is the U.S. government's official web portal to all federal, state and local government web resources and services.